createdAt,value
2019-03-15T00:01:08.547Z,6.97
2019-03-15T00:03:36.240Z,6.93
2019-03-15T00:06:03.901Z,7.03
2019-03-15T00:08:31.690Z,6.95
2019-03-15T00:10:59.420Z,6.94
2019-03-15T00:13:27.098Z,6.98
2019-03-15T00:15:54.799Z,7.04
2019-03-15T00:18:22.660Z,7.05
2019-03-15T00:20:50.311Z,7.09
2019-03-15T00:23:17.951Z,7.12
2019-03-15T00:25:45.595Z,7.04
2019-03-15T00:28:13.234Z,7.08
2019-03-15T00:30:40.897Z,7.12
2019-03-15T00:33:08.553Z,7.10
2019-03-15T00:35:36.202Z,6.98
2019-03-15T00:38:03.841Z,6.92
2019-03-15T00:40:31.487Z,6.86
2019-03-15T00:42:59.130Z,6.84
2019-03-15T00:45:26.782Z,6.81
2019-03-15T00:47:54.415Z,6.82
2019-03-15T00:50:22.067Z,6.68
2019-03-15T00:52:49.709Z,6.65
2019-03-15T00:55:17.373Z,6.65
2019-03-15T00:57:45.000Z,6.70
2019-03-15T01:00:12.650Z,6.71
2019-03-15T01:02:40.296Z,6.85
2019-03-15T01:05:07.949Z,6.88
2019-03-15T01:07:35.584Z,6.75
2019-03-15T01:10:03.329Z,6.65
2019-03-15T01:12:30.972Z,6.65
2019-03-15T01:14:58.627Z,6.61
2019-03-15T01:17:26.635Z,6.65
2019-03-15T01:19:54.339Z,6.67
2019-03-15T01:22:21.978Z,6.72
2019-03-15T01:24:49.627Z,6.74
2019-03-15T01:27:17.268Z,6.72
2019-03-15T01:29:44.955Z,6.70
2019-03-15T01:32:12.595Z,6.76
2019-03-15T01:34:40.245Z,6.77
2019-03-15T01:37:07.888Z,6.83
2019-03-15T01:39:35.616Z,6.82
2019-03-15T01:42:03.279Z,6.78
2019-03-15T01:44:30.941Z,6.81
2019-03-15T01:46:59.320Z,6.81
2019-03-15T01:49:27.226Z,6.71
2019-03-15T01:51:54.870Z,6.78
2019-03-15T01:54:22.523Z,6.78
2019-03-15T01:56:50.162Z,6.74
2019-03-15T01:59:17.807Z,6.76
2019-03-15T02:01:45.463Z,6.76
2019-03-15T02:04:13.108Z,6.81
2019-03-15T02:06:40.762Z,6.78
2019-03-15T02:09:09.450Z,6.75
2019-03-15T02:11:37.343Z,6.73
2019-03-15T02:14:04.995Z,6.74
2019-03-15T02:16:32.635Z,6.73
2019-03-15T02:19:00.275Z,6.74
2019-03-15T02:21:27.923Z,6.68
2019-03-15T02:23:55.568Z,6.72
2019-03-15T02:26:23.220Z,6.72
2019-03-15T02:28:50.882Z,6.74
2019-03-15T02:31:18.619Z,6.68
2019-03-15T02:33:46.280Z,6.69
2019-03-15T02:36:14.263Z,6.70
2019-03-15T02:38:41.952Z,6.70
2019-03-15T02:41:09.602Z,6.72
2019-03-15T02:43:37.260Z,6.71
2019-03-15T02:46:05.252Z,6.82
2019-03-15T02:48:33.052Z,6.82
2019-03-15T02:51:00.695Z,6.81
2019-03-15T02:53:28.366Z,6.80
2019-03-15T02:55:56.017Z,6.75
2019-03-15T02:58:23.666Z,6.73
2019-03-15T03:00:51.401Z,6.79
2019-03-15T03:03:19.303Z,6.69
2019-03-15T03:05:48.335Z,6.68
2019-03-15T03:08:16.103Z,6.67
2019-03-15T03:10:43.910Z,6.59
2019-03-15T03:13:11.555Z,6.60
2019-03-15T03:15:39.204Z,6.65
2019-03-15T03:18:07.404Z,6.78
2019-03-15T03:20:35.380Z,6.73
2019-03-15T03:23:04.030Z,6.74
2019-03-15T03:25:31.857Z,6.69
2019-03-15T03:28:00.700Z,6.68
2019-03-15T03:30:28.937Z,6.76
2019-03-15T03:32:56.584Z,6.72
2019-03-15T03:35:24.231Z,6.78
2019-03-15T03:37:51.871Z,6.75
2019-03-15T03:40:20.477Z,6.74
2019-03-15T03:42:48.852Z,6.78
2019-03-15T03:45:16.509Z,6.83
2019-03-15T03:47:44.158Z,6.86
2019-03-15T03:50:11.827Z,6.78
2019-03-15T03:52:41.794Z,6.73
2019-03-15T03:55:08.870Z,6.79
2019-03-15T03:57:36.701Z,6.74
2019-03-15T04:00:04.530Z,6.75
2019-03-15T04:02:33.107Z,6.81
2019-03-15T04:05:00.952Z,6.72
2019-03-15T04:07:28.616Z,6.77
2019-03-15T04:09:56.251Z,6.84
2019-03-15T04:12:23.910Z,6.89
2019-03-15T04:14:51.656Z,6.85
2019-03-15T04:17:19.384Z,6.90
2019-03-15T04:19:47.065Z,6.87
2019-03-15T04:22:14.743Z,6.86
2019-03-15T04:24:42.439Z,6.88
2019-03-15T04:27:10.091Z,6.88
2019-03-15T04:29:37.745Z,6.89
2019-03-15T04:32:05.383Z,6.91
2019-03-15T04:34:33.039Z,6.88
2019-03-15T04:37:00.695Z,6.87
2019-03-15T04:39:28.492Z,6.89
2019-03-15T04:41:56.330Z,6.88
2019-03-15T04:44:23.974Z,6.86
2019-03-15T04:46:51.623Z,6.79
2019-03-15T04:49:19.264Z,6.80
2019-03-15T04:51:46.956Z,6.74
2019-03-15T04:54:14.604Z,6.77
2019-03-15T04:56:42.251Z,6.74
2019-03-15T04:59:09.915Z,6.71
2019-03-15T05:01:37.567Z,6.65
2019-03-15T05:04:05.204Z,6.76
2019-03-15T05:06:32.868Z,6.76
2019-03-15T05:09:00.516Z,6.70
2019-03-15T05:11:28.165Z,6.75
2019-03-15T05:13:58.652Z,6.76
2019-03-15T05:16:25.152Z,6.77
2019-03-15T05:18:52.839Z,6.83
2019-03-15T05:21:20.487Z,6.83
2019-03-15T05:23:48.144Z,7.06
2019-03-15T05:26:15.780Z,6.97
2019-03-15T05:28:43.447Z,7.03
2019-03-15T05:31:11.101Z,7.01
2019-03-15T05:33:38.752Z,7.05
2019-03-15T05:36:06.419Z,7.11
2019-03-15T05:38:35.097Z,7.09
2019-03-15T05:41:03.083Z,7.13
2019-03-15T05:43:30.728Z,7.07
2019-03-15T05:45:58.370Z,7.06
2019-03-15T05:48:26.052Z,7.07
2019-03-15T05:50:53.691Z,7.01
2019-03-15T05:53:21.386Z,7.09
2019-03-15T05:55:49.024Z,7.09
2019-03-15T05:58:16.667Z,7.06
2019-03-15T06:00:44.319Z,7.05
2019-03-15T06:03:12.631Z,7.07
2019-03-15T06:05:40.487Z,7.01
2019-03-15T06:08:08.181Z,7.03
2019-03-15T06:10:35.861Z,7.09
2019-03-15T06:55:19.928Z,7.60
2019-03-15T06:57:47.597Z,7.70
2019-03-15T07:00:15.272Z,7.77
2019-03-15T07:02:42.915Z,8.11
2019-03-15T07:05:12.164Z,8.01
2019-03-15T07:07:39.917Z,8.12
2019-03-15T07:10:07.553Z,8.32
2019-03-15T07:12:35.183Z,8.59
2019-03-15T07:15:02.825Z,8.92
2019-03-15T07:17:30.466Z,8.75
2019-03-15T07:19:58.111Z,8.64
2019-03-15T07:22:25.758Z,8.74
2019-03-15T07:24:53.400Z,8.64
2019-03-15T07:27:21.932Z,8.57
2019-03-15T07:29:49.731Z,8.74
2019-03-15T07:32:17.496Z,8.79
2019-03-15T07:34:45.135Z,8.65
2019-03-15T07:37:12.793Z,8.66
2019-03-15T07:39:40.443Z,8.55
2019-03-15T07:42:08.072Z,8.55
2019-03-15T07:44:35.725Z,8.57
2019-03-15T07:47:03.379Z,8.70
2019-03-15T07:49:31.015Z,8.73
2019-03-15T07:51:58.650Z,8.68
2019-03-15T07:54:37.409Z,8.69
2019-03-15T07:56:55.635Z,8.82
2019-03-15T07:59:23.267Z,9.01
2019-03-15T08:01:52.731Z,9.10
2019-03-15T08:04:20.276Z,9.15
2019-03-15T08:06:47.910Z,8.91
2019-03-15T08:09:15.561Z,8.88
2019-03-15T08:11:43.188Z,9.01
2019-03-15T08:14:10.827Z,8.78
2019-03-15T08:16:38.456Z,8.91
2019-03-15T08:19:06.111Z,8.91
2019-03-15T08:21:33.755Z,9.16
2019-03-15T08:24:01.388Z,9.08
2019-03-15T08:26:30.360Z,9.00
2019-03-15T08:28:58.153Z,9.19
2019-03-15T08:31:25.803Z,9.41
2019-03-15T08:33:53.478Z,9.54
2019-03-15T08:36:21.111Z,9.67
2019-03-15T08:38:48.773Z,9.84
2019-03-15T08:41:16.419Z,9.93
2019-03-15T08:43:46.052Z,9.80
2019-03-15T08:46:13.587Z,9.66
2019-03-15T08:48:41.235Z,9.90
2019-03-15T08:51:10.557Z,9.79
2019-03-15T08:53:38.258Z,10.19
2019-03-15T08:56:06.176Z,9.98
2019-03-15T08:58:33.831Z,9.91
2019-03-15T09:01:01.468Z,9.90
2019-03-15T09:03:29.113Z,9.74
2019-03-15T09:05:56.747Z,9.63
2019-03-15T09:08:24.396Z,9.68
2019-03-15T09:10:52.058Z,9.87
2019-03-15T09:13:19.716Z,9.93
2019-03-15T09:15:47.371Z,10.01
2019-03-15T09:18:15.013Z,10.15
2019-03-15T09:20:42.655Z,10.24
2019-03-15T09:23:10.322Z,10.48
2019-03-15T09:25:37.978Z,10.09
2019-03-15T09:28:05.619Z,10.09
2019-03-15T09:30:33.285Z,10.09
2019-03-15T09:33:03.143Z,10.47
2019-03-15T09:35:30.343Z,10.37
2019-03-15T09:37:57.983Z,10.11
2019-03-15T09:40:26.224Z,9.93
2019-03-15T09:42:53.973Z,10.10
2019-03-15T09:45:21.624Z,10.10
2019-03-15T09:47:49.278Z,10.22
2019-03-15T09:50:26.390Z,10.13
2019-03-15T09:52:46.269Z,10.31
2019-03-15T09:55:13.991Z,10.41
2019-03-15T09:57:41.659Z,10.53
2019-03-15T10:00:09.423Z,10.63
2019-03-15T10:02:37.101Z,10.50
2019-03-15T10:05:10.952Z,10.48
2019-03-15T10:07:38.748Z,10.63
2019-03-15T10:10:12.989Z,10.87
2019-03-15T10:12:32.759Z,10.90
2019-03-15T10:15:00.521Z,10.90
2019-03-15T10:17:28.235Z,10.95
2019-03-15T10:19:55.901Z,11.36
2019-03-15T10:22:23.554Z,11.08
2019-03-15T10:24:51.208Z,11.57
2019-03-15T10:27:18.844Z,11.41
2019-03-15T10:29:46.507Z,11.25
2019-03-15T10:32:14.165Z,11.52
2019-03-15T10:34:41.816Z,11.57
2019-03-15T10:37:09.467Z,11.24
2019-03-15T10:39:37.119Z,11.40
2019-03-15T10:42:04.775Z,11.03
2019-03-15T10:44:32.512Z,11.52
2019-03-15T10:47:00.152Z,11.50
2019-03-15T10:49:30.689Z,11.52
2019-03-15T10:51:57.134Z,11.52
2019-03-15T10:54:24.786Z,11.37
2019-03-15T10:56:52.426Z,11.42
2019-03-15T10:59:20.155Z,11.27
2019-03-15T11:01:47.806Z,11.14
2019-03-15T11:04:15.555Z,10.89
2019-03-15T11:06:43.231Z,10.66
2019-03-15T11:09:10.888Z,10.50
2019-03-15T11:11:38.532Z,10.79
2019-03-15T11:14:06.483Z,10.98
2019-03-15T11:16:34.136Z,10.87
2019-03-15T11:19:01.775Z,10.97
2019-03-15T11:21:29.428Z,10.98
2019-03-15T11:23:57.077Z,10.91
2019-03-15T11:26:24.754Z,10.78
2019-03-15T11:28:52.394Z,10.85
2019-03-15T11:31:20.063Z,10.83
2019-03-15T11:33:47.765Z,10.97
2019-03-15T11:36:15.420Z,10.84
2019-03-15T11:38:43.072Z,11.25
2019-03-15T11:41:10.795Z,11.15
2019-03-15T11:43:38.443Z,11.59
2019-03-15T11:46:06.099Z,11.29
2019-03-15T11:48:33.768Z,11.51
2019-03-15T11:51:01.413Z,11.09
2019-03-15T11:53:29.087Z,11.44
2019-03-15T11:55:56.726Z,11.06
2019-03-15T11:58:24.376Z,11.27
2019-03-15T12:00:52.083Z,11.08
2019-03-15T12:03:19.722Z,11.23
2019-03-15T12:05:47.377Z,11.12
2019-03-15T12:08:15.010Z,10.34
2019-03-15T12:10:42.675Z,10.16
2019-03-15T12:13:10.320Z,10.33
2019-03-15T12:15:37.964Z,10.42
2019-03-15T12:18:08.240Z,10.38
2019-03-15T12:20:34.972Z,10.63
2019-03-15T12:23:02.620Z,10.51
2019-03-15T12:25:31.546Z,10.76
2019-03-15T12:27:59.755Z,10.88
2019-03-15T12:30:27.402Z,10.77
2019-03-15T12:32:55.087Z,10.92
2019-03-15T12:35:22.720Z,10.65
2019-03-15T12:37:50.364Z,10.36
2019-03-15T12:40:18.013Z,10.40
2019-03-15T12:42:45.648Z,10.39
2019-03-15T12:45:13.300Z,10.32
2019-03-15T12:47:40.959Z,10.37
2019-03-15T12:50:08.621Z,10.45
2019-03-15T12:52:46.415Z,10.59
2019-03-15T12:55:05.683Z,10.13
2019-03-15T12:57:33.340Z,10.18
2019-03-15T13:00:00.986Z,10.12
2019-03-15T13:02:28.623Z,9.93
2019-03-15T13:04:56.316Z,9.68
2019-03-15T13:07:23.968Z,9.79
2019-03-15T13:09:51.603Z,9.99
2019-03-15T13:12:19.244Z,9.92
2019-03-15T13:14:46.884Z,9.68
2019-03-15T13:17:14.526Z,9.93
2019-03-15T13:19:54.704Z,10.13
2019-03-15T13:22:11.531Z,10.03
2019-03-15T13:24:39.168Z,10.10
2019-03-15T13:27:07.898Z,9.75
2019-03-15T13:29:35.723Z,9.84
2019-03-15T13:32:03.368Z,9.62
2019-03-15T13:34:31.004Z,9.80
2019-03-15T13:36:58.647Z,9.83
2019-03-15T13:39:26.282Z,9.80
2019-03-15T13:41:53.931Z,9.71
2019-03-15T13:44:21.610Z,9.89
2019-03-15T13:46:49.256Z,9.72
2019-03-15T13:49:16.899Z,9.93
2019-03-15T13:51:44.554Z,9.86
2019-03-15T13:54:12.214Z,9.91
2019-03-15T13:56:39.959Z,9.65
2019-03-15T13:59:07.603Z,9.52
2019-03-15T14:01:35.267Z,9.60
2019-03-15T14:04:02.904Z,9.69
2019-03-15T14:06:30.562Z,9.64
2019-03-15T14:08:58.196Z,9.69
2019-03-15T14:11:25.839Z,9.64
2019-03-15T14:13:53.479Z,9.56
2019-03-15T14:16:21.124Z,9.33
2019-03-15T14:18:48.861Z,9.30
2019-03-15T14:21:16.608Z,9.35
2019-03-15T14:23:44.356Z,9.30
2019-03-15T14:26:11.987Z,9.32
2019-03-15T14:28:39.660Z,9.11
2019-03-15T14:31:10.660Z,9.25
2019-03-15T14:33:38.286Z,9.28
2019-03-15T14:36:05.957Z,9.29
2019-03-15T14:38:33.639Z,9.19
2019-03-15T14:41:01.461Z,9.23
2019-03-15T14:43:29.219Z,9.25
2019-03-15T14:45:57.052Z,9.32
2019-03-15T14:48:24.753Z,9.39
2019-03-15T14:50:52.390Z,9.28
2019-03-15T14:53:20.031Z,9.26
2019-03-15T14:55:47.674Z,9.27
2019-03-15T14:58:15.349Z,9.23
2019-03-15T15:00:43.031Z,9.24
2019-03-15T15:03:10.672Z,9.15
2019-03-15T15:05:38.309Z,9.23
2019-03-15T15:08:05.953Z,9.09
2019-03-15T15:10:33.576Z,9.06
2019-03-15T15:13:01.221Z,9.06
2019-03-15T15:15:28.850Z,9.04
2019-03-15T15:17:56.494Z,9.10
2019-03-15T15:20:24.185Z,9.06
2019-03-15T15:22:51.827Z,9.14
2019-03-15T15:25:19.483Z,9.15
2019-03-15T15:27:47.199Z,9.15
2019-03-15T15:30:14.822Z,9.16
2019-03-15T15:32:42.475Z,9.24
2019-03-15T15:35:10.130Z,9.36
2019-03-15T15:37:37.803Z,9.35
2019-03-15T15:40:05.443Z,9.47
2019-03-15T15:42:33.091Z,9.62
2019-03-15T15:45:00.762Z,9.66
2019-03-15T15:47:28.410Z,9.68
2019-03-15T15:49:56.048Z,9.69
2019-03-15T15:52:23.798Z,9.73
2019-03-15T15:54:51.527Z,9.84
2019-03-15T15:57:19.169Z,9.89
2019-03-15T15:59:46.800Z,9.97
2019-03-15T16:02:14.443Z,9.95
2019-03-15T16:04:42.113Z,10.02
2019-03-15T16:07:09.749Z,10.07
2019-03-15T16:09:37.405Z,10.13
2019-03-15T16:12:05.075Z,10.18
2019-03-15T16:14:32.730Z,10.24
2019-03-15T16:17:00.362Z,10.17
2019-03-15T16:19:28.020Z,10.19
2019-03-15T16:21:55.695Z,10.36
2019-03-15T16:24:23.340Z,10.37
2019-03-15T16:26:50.991Z,10.36
2019-03-15T16:29:19.018Z,10.30
2019-03-15T16:31:46.662Z,10.36
2019-03-15T16:34:14.306Z,10.45
2019-03-15T16:36:41.952Z,10.33
2019-03-15T16:39:09.619Z,10.31
2019-03-15T16:41:37.303Z,10.40
2019-03-15T16:44:04.950Z,10.45
2019-03-15T16:46:32.600Z,10.46
2019-03-15T16:49:00.247Z,10.56
2019-03-15T16:51:27.886Z,10.61
2019-03-15T16:53:55.557Z,10.68
2019-03-15T16:56:23.199Z,10.80
2019-03-15T16:58:50.858Z,10.75
2019-03-15T17:01:18.527Z,10.84
2019-03-15T17:03:46.172Z,10.85
2019-03-15T17:06:13.811Z,10.83
2019-03-15T17:08:41.449Z,10.86
2019-03-15T17:11:09.093Z,10.90
2019-03-15T17:13:36.726Z,10.93
2019-03-15T17:16:04.422Z,10.89
2019-03-15T17:18:32.115Z,11.09
2019-03-15T17:20:59.751Z,11.08
2019-03-15T17:23:27.391Z,11.13
2019-03-15T17:25:55.038Z,11.16
2019-03-15T17:28:22.702Z,11.17
2019-03-15T17:30:50.370Z,11.13
2019-03-15T17:33:18.014Z,11.16
2019-03-15T17:35:45.656Z,11.34
2019-03-15T17:38:13.293Z,11.25
2019-03-15T17:40:40.941Z,11.33
2019-03-15T17:43:08.588Z,11.42
2019-03-15T17:45:36.243Z,11.25
2019-03-15T17:48:03.887Z,11.39
2019-03-15T17:50:31.542Z,11.40
2019-03-15T17:52:59.185Z,11.43
2019-03-15T17:55:26.827Z,11.46
2019-03-15T17:57:54.469Z,11.51
2019-03-15T18:00:26.835Z,11.49
2019-03-15T18:02:54.478Z,11.62
2019-03-15T18:05:22.182Z,11.60
2019-03-15T18:07:49.924Z,11.62
2019-03-15T18:10:17.573Z,11.77
2019-03-15T18:12:45.221Z,11.84
2019-03-15T18:15:12.857Z,11.83
2019-03-15T18:17:40.498Z,11.83
2019-03-15T18:20:08.142Z,11.86
2019-03-15T18:22:35.899Z,12.11
2019-03-15T18:25:03.559Z,12.14
2019-03-15T18:27:31.270Z,11.90
2019-03-15T18:29:58.913Z,11.69
2019-03-15T18:32:26.560Z,11.61
2019-03-15T18:34:54.203Z,11.47
2019-03-15T18:37:21.843Z,11.28
2019-03-15T18:39:49.581Z,9.84
2019-03-15T18:42:17.286Z,9.27
2019-03-15T18:44:44.931Z,9.08
2019-03-15T18:47:12.579Z,8.97
2019-03-15T18:49:40.225Z,8.80
2019-03-15T18:52:07.862Z,8.79
2019-03-15T18:54:37.949Z,8.54
2019-03-15T18:57:04.845Z,8.61
2019-03-15T18:59:39.806Z,8.58
2019-03-15T19:02:01.830Z,8.49
2019-03-15T19:04:29.478Z,8.43
2019-03-15T19:06:57.112Z,8.42
2019-03-15T19:09:24.766Z,8.37
2019-03-15T19:11:52.399Z,8.37
2019-03-15T19:14:20.055Z,8.37
2019-03-15T19:16:47.678Z,8.41
2019-03-15T19:19:15.317Z,8.42
2019-03-15T19:21:42.963Z,8.43
2019-03-15T19:24:10.657Z,8.44
2019-03-15T19:26:38.318Z,8.52
2019-03-15T19:29:05.973Z,8.53
2019-03-15T19:31:33.601Z,8.52
2019-03-15T19:34:01.251Z,8.66
2019-03-15T19:36:28.887Z,8.64
2019-03-15T19:38:56.533Z,8.68
2019-03-15T19:41:24.455Z,8.80
2019-03-15T19:43:52.155Z,8.84
2019-03-15T19:46:19.855Z,8.82
2019-03-15T19:48:47.512Z,8.86
2019-03-15T19:51:15.156Z,8.90
2019-03-15T19:53:42.795Z,8.90
2019-03-15T19:56:10.443Z,8.91
2019-03-15T19:58:38.079Z,9.11
2019-03-15T20:01:05.726Z,9.18
2019-03-15T20:03:43.517Z,9.30
2019-03-15T20:06:02.813Z,9.28
2019-03-15T20:08:30.567Z,9.43
2019-03-15T20:10:58.202Z,9.54
2019-03-15T20:13:25.840Z,9.47
2019-03-15T20:15:53.492Z,9.56
2019-03-15T20:18:21.358Z,9.74
2019-03-15T20:20:49.123Z,9.71
2019-03-15T20:23:16.747Z,9.58
2019-03-15T20:25:44.389Z,9.56
2019-03-15T20:28:12.025Z,9.36
2019-03-15T20:30:51.227Z,9.37
2019-03-15T20:33:09.012Z,9.31
2019-03-15T20:35:36.651Z,9.27
2019-03-15T20:38:04.299Z,9.28
2019-03-15T20:40:31.944Z,9.32
2019-03-15T20:42:59.590Z,9.31
2019-03-15T20:45:27.255Z,9.20
2019-03-15T20:47:54.893Z,9.14
2019-03-15T20:50:22.530Z,9.35
2019-03-15T20:52:50.165Z,9.33
2019-03-15T20:55:17.814Z,9.32
2019-03-15T20:57:45.458Z,9.35
2019-03-15T21:00:13.107Z,9.30
2019-03-15T21:02:40.767Z,9.37
2019-03-15T21:05:08.406Z,9.31
2019-03-15T21:07:36.099Z,9.34
2019-03-15T21:10:03.742Z,9.40
2019-03-15T21:12:31.386Z,9.32
2019-03-15T21:14:59.194Z,9.34
2019-03-15T21:17:26.841Z,9.37
2019-03-15T21:19:54.493Z,9.30
2019-03-15T21:22:22.152Z,9.38
2019-03-15T21:24:49.779Z,9.49
2019-03-15T21:27:17.418Z,9.37
2019-03-15T21:29:45.068Z,9.41
2019-03-15T21:32:12.782Z,9.39
2019-03-15T21:34:40.628Z,9.36
2019-03-15T21:37:08.270Z,9.24
2019-03-15T21:39:35.920Z,9.19
2019-03-15T21:42:03.638Z,9.15
2019-03-15T21:44:31.280Z,9.12
2019-03-15T21:46:58.931Z,9.12
2019-03-15T21:49:26.573Z,9.16
2019-03-15T21:51:54.209Z,9.24
2019-03-15T21:54:21.841Z,9.31
2019-03-15T21:56:49.483Z,9.27
2019-03-15T21:59:17.119Z,9.20
2019-03-15T22:01:44.822Z,9.23
2019-03-15T22:04:12.472Z,9.32
2019-03-15T22:06:40.119Z,9.23
2019-03-15T22:09:07.760Z,9.26
2019-03-15T22:11:35.400Z,9.16
2019-03-15T22:14:03.032Z,8.99
2019-03-15T22:16:30.703Z,9.00
2019-03-15T22:18:58.391Z,9.00
2019-03-15T22:21:26.046Z,8.85
2019-03-15T22:23:53.691Z,8.88
2019-03-15T22:26:21.373Z,8.79
2019-03-15T22:28:49.013Z,8.90
2019-03-15T22:31:17.209Z,9.00
2019-03-15T22:33:44.979Z,8.84
2019-03-15T22:36:12.615Z,8.87
2019-03-15T22:38:40.247Z,8.72
2019-03-15T22:41:07.904Z,8.74
2019-03-15T22:43:35.530Z,8.66
2019-03-15T22:46:03.176Z,8.67
2019-03-15T22:48:30.806Z,8.54
2019-03-15T22:50:58.446Z,8.54
2019-03-15T22:53:26.099Z,8.49
2019-03-15T22:55:53.731Z,8.44
2019-03-15T22:58:21.374Z,8.54
2019-03-15T23:00:49.011Z,8.59
2019-03-15T23:03:16.665Z,8.51
2019-03-15T23:05:44.307Z,8.59
2019-03-15T23:08:11.963Z,8.51
2019-03-15T23:10:39.608Z,8.47
2019-03-15T23:13:07.351Z,8.54
2019-03-15T23:15:34.991Z,8.48
2019-03-15T23:18:02.656Z,8.36
2019-03-15T23:20:30.357Z,8.34
2019-03-15T23:22:58.353Z,8.25
2019-03-15T23:25:26.031Z,8.23
2019-03-15T23:27:53.713Z,8.28
2019-03-15T23:30:21.339Z,8.23
2019-03-15T23:32:48.974Z,8.12
2019-03-15T23:35:16.629Z,8.11
2019-03-15T23:37:44.277Z,8.12
2019-03-15T23:40:11.958Z,8.09
2019-03-15T23:42:39.594Z,8.12
2019-03-15T23:45:07.249Z,8.01
2019-03-15T23:47:34.902Z,8.00
2019-03-15T23:50:02.550Z,8.07
2019-03-15T23:52:30.194Z,8.09
2019-03-15T23:54:57.843Z,8.00
2019-03-15T23:57:25.470Z,7.94
2019-03-15T23:59:53.110Z,7.99
